createdAt,value
2022-12-25T00:02:05.643Z,62.65
2022-12-25T00:05:08.853Z,56.47
2022-12-25T00:08:11.641Z,75.03
2022-12-25T00:11:17.096Z,62.90
2022-12-25T00:14:19.919Z,68.13
2022-12-25T00:17:22.694Z,77.10
2022-12-25T00:20:25.535Z,97.88
2022-12-25T00:23:29.227Z,93.33
2022-12-25T00:26:32.022Z,93.67
2022-12-25T00:29:35.265Z,88.05
2022-12-25T00:32:38.125Z,92.03
2022-12-25T00:35:41.179Z,94.50
2022-12-25T00:38:44.851Z,88.93
2022-12-25T00:42:06.150Z,93.47
2022-12-25T00:45:09.462Z,76.95
2022-12-25T00:48:12.257Z,68.88
2022-12-25T00:51:15.154Z,80.88
2022-12-25T00:54:18.500Z,63.93
2022-12-25T00:57:21.368Z,68.47
2022-12-25T01:00:24.228Z,59.80
2022-12-25T01:03:27.571Z,50.03
2022-12-25T01:06:30.988Z,53.70
2022-12-25T01:10:00.209Z,57.47
2022-12-25T01:13:03.093Z,46.50
2022-12-25T01:16:16.418Z,53.67
2022-12-25T01:19:19.306Z,50.78
2022-12-25T01:22:22.162Z,47.42
2022-12-25T01:25:25.071Z,45.37
2022-12-25T01:28:27.800Z,48.17
2022-12-25T01:31:30.562Z,48.30
2022-12-25T01:34:33.464Z,39.30
2022-12-25T01:37:36.223Z,41.50
2022-12-25T01:40:39.446Z,36.87
2022-12-25T01:44:01.108Z,43.87
2022-12-25T01:47:05.719Z,44.67
2022-12-25T01:50:09.155Z,45.75
2022-12-25T01:53:12.500Z,47.28
2022-12-25T01:56:15.304Z,56.47
2022-12-25T01:59:21.863Z,51.47
2022-12-25T02:02:25.283Z,50.28
2022-12-25T02:05:32.443Z,47.47
2022-12-25T02:08:35.228Z,46.15
2022-12-25T02:11:56.743Z,59.60
2022-12-25T02:15:05.825Z,52.77
2022-12-25T02:18:47.299Z,57.67
2022-12-25T02:22:13.019Z,67.43
2022-12-25T02:25:34.363Z,94.85
2022-12-25T02:28:52.464Z,122.70
2022-12-25T02:32:04.796Z,78.10
2022-12-25T02:35:18.336Z,58.00
2022-12-25T02:38:30.107Z,35.95
2022-12-25T02:41:37.480Z,33.03
2022-12-25T02:45:02.246Z,29.97
2022-12-25T02:48:25.569Z,30.37
2022-12-25T02:51:51.948Z,27.88
2022-12-25T02:55:21.729Z,35.42
2022-12-25T02:58:45.004Z,33.47
2022-12-25T03:02:06.337Z,31.67
2022-12-25T03:05:31.959Z,32.93
2022-12-25T03:08:39.848Z,31.17
2022-12-25T03:11:45.831Z,34.22
2022-12-25T03:15:07.208Z,28.30
2022-12-25T03:18:14.621Z,31.33
2022-12-25T03:21:36.330Z,35.63
2022-12-25T03:24:58.441Z,43.13
2022-12-25T03:28:03.916Z,37.10
2022-12-25T03:31:38.737Z,37.65
2022-12-25T03:35:23.373Z,36.47
2022-12-25T03:39:02.808Z,42.03
2022-12-25T03:42:26.003Z,48.13
2022-12-25T03:46:12.566Z,55.50
2022-12-25T03:49:48.845Z,51.20
2022-12-25T03:53:13.163Z,55.00
2022-12-25T03:56:37.576Z,66.87
2022-12-25T03:59:59.196Z,63.65
2022-12-25T04:03:20.667Z,48.92
2022-12-25T04:06:59.114Z,53.72
2022-12-25T04:10:20.612Z,40.80
2022-12-25T04:13:52.634Z,43.50
2022-12-25T04:17:27.648Z,53.88
2022-12-25T04:20:49.293Z,50.33
2022-12-25T04:24:10.736Z,49.28
2022-12-25T04:27:32.164Z,43.77
2022-12-25T04:30:53.531Z,43.57
2022-12-25T04:34:14.690Z,48.13
2022-12-25T04:37:17.503Z,45.85
2022-12-25T04:40:20.425Z,42.53
2022-12-25T04:43:25.311Z,41.40
2022-12-25T04:46:28.093Z,43.90
2022-12-25T04:49:31.096Z,43.60
2022-12-25T04:52:39.543Z,44.63
2022-12-25T04:55:42.337Z,49.03
2022-12-25T04:58:45.579Z,43.57
2022-12-25T05:01:48.556Z,42.17
2022-12-25T05:04:51.509Z,46.45
2022-12-25T05:07:54.374Z,45.72
2022-12-25T05:10:57.414Z,47.13
2022-12-25T05:14:00.196Z,49.97
2022-12-25T05:17:03.582Z,49.37
2022-12-25T05:20:08.578Z,47.75
2022-12-25T05:23:12.494Z,48.10
2022-12-25T05:26:17.119Z,45.97
2022-12-25T05:29:19.866Z,47.67
2022-12-25T05:32:22.608Z,46.63
2022-12-25T05:35:25.399Z,52.60
2022-12-25T05:38:28.202Z,49.90
2022-12-25T05:41:34.447Z,46.65
2022-12-25T05:44:37.857Z,53.57
2022-12-25T05:47:40.615Z,56.50
2022-12-25T05:50:43.929Z,56.92
2022-12-25T05:53:46.738Z,81.68
2022-12-25T05:56:49.507Z,79.15
2022-12-25T05:59:52.445Z,80.40
2022-12-25T06:02:55.651Z,94.53
2022-12-25T06:05:58.487Z,90.10
2022-12-25T06:09:01.266Z,106.43
2022-12-25T06:12:04.205Z,104.57
2022-12-25T06:15:08.099Z,119.40
2022-12-25T06:18:11.000Z,115.60
2022-12-25T06:21:15.559Z,120.10
2022-12-25T06:24:21.435Z,121.15
2022-12-25T06:27:25.369Z,130.93
2022-12-25T06:30:28.545Z,139.77
2022-12-25T06:33:31.360Z,106.73
2022-12-25T06:36:34.467Z,83.63
2022-12-25T06:39:37.506Z,63.70
2022-12-25T06:42:40.341Z,68.35
2022-12-25T06:45:43.267Z,84.97
2022-12-25T06:48:49.921Z,92.37
2022-12-25T06:51:53.000Z,88.82
2022-12-25T06:54:55.757Z,74.80
2022-12-25T06:57:58.556Z,80.82
2022-12-25T07:01:07.131Z,74.80
2022-12-25T07:04:18.085Z,73.83
2022-12-25T07:07:22.352Z,91.53
2022-12-25T07:10:26.695Z,115.88
2022-12-25T07:13:29.593Z,110.15
2022-12-25T07:16:32.596Z,129.47
2022-12-25T07:19:41.077Z,144.20
2022-12-25T07:22:47.412Z,128.82
2022-12-25T07:25:57.315Z,182.73
2022-12-25T07:29:00.157Z,151.80
2022-12-25T07:32:02.881Z,156.20
2022-12-25T07:35:06.079Z,149.97
2022-12-25T07:38:09.101Z,154.75
2022-12-25T07:41:13.299Z,155.27
2022-12-25T07:44:16.599Z,168.02
2022-12-25T07:47:19.333Z,158.03
2022-12-25T07:50:22.194Z,147.47
2022-12-25T07:53:25.104Z,147.10
2022-12-25T07:56:28.594Z,145.27
2022-12-25T07:59:31.431Z,135.45
2022-12-25T08:02:34.546Z,127.85
2022-12-25T08:05:37.530Z,99.13
2022-12-25T08:08:41.803Z,105.38
2022-12-25T08:11:49.579Z,73.65
2022-12-25T08:14:52.397Z,71.28
2022-12-25T08:17:55.268Z,79.13
2022-12-25T08:21:07.003Z,64.83
2022-12-25T08:24:10.911Z,60.80
2022-12-25T08:27:13.670Z,68.88
2022-12-25T08:30:16.640Z,63.97
2022-12-25T08:33:19.512Z,65.60
2022-12-25T08:36:23.627Z,70.13
2022-12-25T08:39:26.587Z,73.10
2022-12-25T08:42:29.419Z,75.75
2022-12-25T08:45:35.263Z,78.93
2022-12-25T08:48:39.012Z,85.10
2022-12-25T08:51:44.069Z,92.20
2022-12-25T08:54:47.331Z,112.68
2022-12-25T08:57:53.430Z,116.93
2022-12-25T09:00:56.755Z,121.28
2022-12-25T09:03:59.776Z,119.43
2022-12-25T09:07:02.850Z,112.10
2022-12-25T09:10:06.324Z,100.50
2022-12-25T09:13:10.086Z,86.68
2022-12-25T09:16:16.960Z,68.63
2022-12-25T09:19:19.931Z,41.25
2022-12-25T09:22:22.990Z,40.50
2022-12-25T09:25:25.822Z,24.35
2022-12-25T09:28:28.824Z,24.50
2022-12-25T09:31:32.076Z,22.25
2022-12-25T09:34:35.489Z,21.55
2022-12-25T09:37:38.308Z,24.73
2022-12-25T09:40:41.458Z,24.17
2022-12-25T09:43:51.547Z,27.27
2022-12-25T09:46:59.599Z,24.42
2022-12-25T09:50:21.301Z,24.00
2022-12-25T09:53:28.256Z,32.30
2022-12-25T09:56:32.821Z,25.83
2022-12-25T09:59:36.117Z,30.35
2022-12-25T10:02:58.062Z,28.85
2022-12-25T10:06:07.150Z,30.33
2022-12-25T10:09:41.019Z,27.53
2022-12-25T10:13:23.084Z,25.88
2022-12-25T10:16:47.297Z,29.52
2022-12-25T10:20:12.150Z,19.92
2022-12-25T10:23:19.882Z,22.30
2022-12-25T10:26:25.445Z,26.27
2022-12-25T10:29:33.011Z,28.38
2022-12-25T10:32:35.817Z,23.60
2022-12-25T10:35:39.701Z,18.92
2022-12-25T10:38:42.654Z,20.77
2022-12-25T10:42:09.850Z,19.93
2022-12-25T10:45:12.689Z,14.27
2022-12-25T10:48:24.035Z,18.98
2022-12-25T10:51:35.207Z,17.67
2022-12-25T10:54:38.092Z,16.95
2022-12-25T10:57:47.560Z,19.37
2022-12-25T11:00:57.059Z,16.25
2022-12-25T11:04:00.009Z,19.73
2022-12-25T11:07:19.178Z,16.88
2022-12-25T11:10:33.184Z,16.67
2022-12-25T11:13:40.534Z,23.30
2022-12-25T11:16:43.428Z,19.60
2022-12-25T11:19:53.813Z,18.85
2022-12-25T11:22:56.555Z,19.75
2022-12-25T11:26:06.446Z,26.08
2022-12-25T11:29:25.201Z,24.20
2022-12-25T11:32:34.065Z,25.25
2022-12-25T11:35:50.563Z,24.15
2022-12-25T11:38:53.508Z,25.63
2022-12-25T11:42:14.506Z,20.30
2022-12-25T11:45:21.378Z,24.57
2022-12-25T11:48:44.674Z,24.40
2022-12-25T11:51:55.618Z,24.58
2022-12-25T11:55:16.263Z,22.50
2022-12-25T11:58:32.255Z,19.67
2022-12-25T12:01:38.091Z,19.67
2022-12-25T12:04:44.337Z,20.67
2022-12-25T12:08:00.485Z,24.35
2022-12-25T12:11:18.548Z,23.17
2022-12-25T12:14:56.004Z,33.88
2022-12-25T12:18:28.319Z,42.83
2022-12-25T12:21:31.340Z,55.00
2022-12-25T12:24:43.163Z,22.45
2022-12-25T12:27:45.979Z,24.45
2022-12-25T12:31:04.255Z,20.35
2022-12-25T12:34:16.287Z,21.90
2022-12-25T12:37:32.656Z,29.20
2022-12-25T12:40:52.344Z,39.65
2022-12-25T12:43:59.945Z,33.47
2022-12-25T12:47:03.028Z,36.95
2022-12-25T12:50:07.223Z,26.43
2022-12-25T12:53:22.040Z,30.35
2022-12-25T12:56:25.591Z,31.40
2022-12-25T12:59:39.096Z,39.10
2022-12-25T13:03:11.335Z,38.25
2022-12-25T13:06:44.604Z,34.40
2022-12-25T13:10:08.883Z,36.15
2022-12-25T13:13:28.169Z,33.55
2022-12-25T13:16:39.052Z,28.48
2022-12-25T13:19:43.640Z,35.08
2022-12-25T13:22:52.370Z,27.57
2022-12-25T13:25:57.528Z,36.13
2022-12-25T13:29:00.963Z,28.80
2022-12-25T13:32:14.426Z,35.03
2022-12-25T13:35:18.401Z,41.50
2022-12-25T13:38:23.685Z,54.57
2022-12-25T13:41:52.236Z,51.38
2022-12-25T13:45:00.777Z,45.53
2022-12-25T13:48:16.202Z,47.30
2022-12-25T13:51:20.740Z,39.33
2022-12-25T13:54:23.870Z,39.67
2022-12-25T13:57:30.815Z,73.05
2022-12-25T14:00:39.741Z,61.45
2022-12-25T14:03:46.220Z,49.97
2022-12-25T14:06:50.327Z,38.45
2022-12-25T14:10:01.987Z,42.27
2022-12-25T14:13:08.146Z,37.17
2022-12-25T14:16:11.595Z,49.58
2022-12-25T14:19:29.434Z,31.73
2022-12-25T14:22:33.085Z,35.17
2022-12-25T14:25:43.131Z,60.23
2022-12-25T14:29:06.134Z,62.90
2022-12-25T14:32:16.892Z,64.78
2022-12-25T14:35:23.581Z,49.65
2022-12-25T14:38:29.340Z,49.67
2022-12-25T14:41:38.302Z,46.57
2022-12-25T14:44:41.953Z,42.53
2022-12-25T14:47:55.021Z,51.30
2022-12-25T14:51:06.340Z,56.95
2022-12-25T14:54:18.985Z,36.45
2022-12-25T14:57:29.533Z,28.20
2022-12-25T15:00:38.028Z,29.90
2022-12-25T15:03:41.006Z,22.58
2022-12-25T15:06:59.699Z,30.40
2022-12-25T15:13:31.528Z,24.93
2022-12-25T15:16:42.725Z,29.63
2022-12-25T15:19:45.463Z,34.90
2022-12-25T15:23:17.991Z,47.92
2022-12-25T15:26:14.518Z,41.33
2022-12-25T15:29:27.593Z,38.43
2022-12-25T15:32:40.184Z,37.08
2022-12-25T15:35:44.632Z,29.40
2022-12-25T15:38:47.543Z,29.33
2022-12-25T15:42:08.839Z,39.67
2022-12-25T15:45:30.886Z,44.80
2022-12-25T15:48:33.740Z,42.10
2022-12-25T15:51:36.741Z,43.15
2022-12-25T15:54:39.615Z,36.70
2022-12-25T15:57:44.520Z,34.25
2022-12-25T16:00:47.341Z,33.47
2022-12-25T16:03:50.383Z,45.58
2022-12-25T16:06:53.532Z,62.25
2022-12-25T16:09:56.324Z,45.53
2022-12-25T16:12:59.083Z,44.17
2022-12-25T16:16:03.660Z,35.27
2022-12-25T16:19:06.896Z,33.92
2022-12-25T16:22:21.819Z,38.78
2022-12-25T16:25:25.284Z,33.38
2022-12-25T16:28:28.084Z,37.20
2022-12-25T16:31:30.944Z,44.57
2022-12-25T16:34:33.813Z,50.28
2022-12-25T16:37:36.985Z,40.65
2022-12-25T16:40:40.028Z,78.97
2022-12-25T16:43:43.434Z,108.43
2022-12-25T16:46:46.237Z,118.07
2022-12-25T16:49:49.327Z,138.77
2022-12-25T16:52:52.072Z,127.13
2022-12-25T16:56:05.661Z,119.07
2022-12-25T16:59:09.070Z,135.25
2022-12-25T17:02:18.023Z,141.17
2022-12-25T17:05:20.878Z,186.07
2022-12-25T17:08:23.732Z,172.13
2022-12-25T17:11:30.317Z,167.27
2022-12-25T17:14:34.097Z,189.83
2022-12-25T17:17:36.860Z,190.13
2022-12-25T17:20:39.665Z,178.68
2022-12-25T17:23:43.215Z,177.32
2022-12-25T17:26:46.126Z,156.60
2022-12-25T17:29:49.090Z,134.45
2022-12-25T17:32:52.018Z,153.50
2022-12-25T17:36:00.013Z,140.27
2022-12-25T17:39:06.761Z,124.80
2022-12-25T17:42:09.588Z,107.63
2022-12-25T17:45:12.514Z,116.15
2022-12-25T17:48:15.539Z,105.83
2022-12-25T17:51:21.671Z,113.53
2022-12-25T17:54:24.467Z,109.80
2022-12-25T17:57:27.328Z,103.07
2022-12-25T18:00:30.228Z,97.90
2022-12-25T18:03:33.456Z,94.20
2022-12-25T18:06:36.929Z,106.90
2022-12-25T18:09:39.821Z,103.50
2022-12-25T18:12:44.286Z,106.03
2022-12-25T18:15:47.229Z,109.10
2022-12-25T18:18:52.693Z,105.57
2022-12-25T18:21:55.836Z,109.25
2022-12-25T18:24:58.704Z,111.00
2022-12-25T18:28:02.844Z,121.22
2022-12-25T18:31:10.809Z,112.40
2022-12-25T18:34:13.641Z,139.10
2022-12-25T18:37:16.329Z,148.02
2022-12-25T18:40:19.087Z,162.43
2022-12-25T18:43:22.109Z,133.52
2022-12-25T18:46:44.753Z,131.70
2022-12-25T18:49:48.658Z,152.17
2022-12-25T18:52:52.069Z,136.57
2022-12-25T18:55:56.843Z,174.23
2022-12-25T18:59:00.962Z,123.47
2022-12-25T19:02:03.957Z,117.00
2022-12-25T19:05:07.101Z,110.23
2022-12-25T19:08:10.204Z,119.15
2022-12-25T19:11:13.149Z,96.57
2022-12-25T19:14:15.993Z,86.45
2022-12-25T19:17:19.124Z,89.47
2022-12-25T19:20:22.024Z,91.17
2022-12-25T19:23:24.849Z,87.78
2022-12-25T19:26:27.775Z,89.07
2022-12-25T19:29:31.953Z,99.03
2022-12-25T19:32:34.696Z,96.63
2022-12-25T19:35:41.648Z,88.40
2022-12-25T19:38:44.715Z,107.18
2022-12-25T19:41:48.063Z,114.07
2022-12-25T19:44:50.808Z,117.05
2022-12-25T19:47:53.713Z,114.78
2022-12-25T19:50:56.740Z,107.90
2022-12-25T19:54:00.130Z,123.13
2022-12-25T19:57:03.015Z,122.50
2022-12-25T20:00:06.742Z,97.03
2022-12-25T20:03:16.313Z,92.85
2022-12-25T20:06:26.282Z,69.23
2022-12-25T20:09:30.778Z,81.43
2022-12-25T20:12:33.591Z,87.50
2022-12-25T20:15:36.480Z,91.63
2022-12-25T20:18:40.306Z,98.00
2022-12-25T20:21:43.245Z,149.60
2022-12-25T20:24:48.004Z,174.68
2022-12-25T20:27:50.903Z,149.70
2022-12-25T20:30:54.639Z,142.18
2022-12-25T20:34:00.626Z,158.85
2022-12-25T20:37:03.814Z,155.33
2022-12-25T20:40:07.499Z,150.88
2022-12-25T20:43:10.515Z,172.80
2022-12-25T20:46:14.869Z,183.63
2022-12-25T20:49:18.784Z,183.65
2022-12-25T20:52:21.690Z,167.77
2022-12-25T20:55:24.539Z,138.25
2022-12-25T20:58:27.750Z,125.80
2022-12-25T21:01:31.906Z,123.75
2022-12-25T21:04:34.908Z,108.67
2022-12-25T21:07:37.741Z,92.33
2022-12-25T21:10:40.575Z,106.32
2022-12-25T21:13:45.411Z,100.35
2022-12-25T21:16:48.302Z,85.05
2022-12-25T21:19:51.211Z,74.55
2022-12-25T21:22:53.920Z,81.93
2022-12-25T21:25:56.677Z,68.53
2022-12-25T21:29:02.298Z,79.32
2022-12-25T21:32:23.765Z,69.60
2022-12-25T21:35:26.663Z,60.33
2022-12-25T21:38:29.711Z,45.20
2022-12-25T21:41:34.595Z,46.13
2022-12-25T21:44:37.336Z,58.22
2022-12-25T21:48:00.367Z,45.03
2022-12-25T21:51:31.094Z,46.10
2022-12-25T21:54:34.450Z,38.17
2022-12-25T21:57:37.347Z,41.60
2022-12-25T22:00:40.277Z,37.40
2022-12-25T22:03:44.275Z,39.67
2022-12-25T22:07:06.019Z,38.35
2022-12-25T22:10:08.952Z,35.97
2022-12-25T22:13:30.372Z,38.28
2022-12-25T22:16:51.860Z,48.45
2022-12-25T22:19:55.002Z,37.72
2022-12-25T22:22:58.586Z,36.60
2022-12-25T22:26:04.538Z,41.47
2022-12-25T22:29:07.335Z,41.47
2022-12-25T22:32:11.645Z,37.83
2022-12-25T22:35:15.418Z,38.55
2022-12-25T22:38:18.277Z,41.17
2022-12-25T22:41:21.078Z,45.87
2022-12-25T22:44:25.874Z,55.63
2022-12-25T22:47:28.671Z,53.33
2022-12-25T22:50:31.507Z,88.65
2022-12-25T22:53:34.291Z,86.10
2022-12-25T22:56:37.214Z,87.07
2022-12-25T22:59:40.117Z,93.75
2022-12-25T23:02:43.137Z,82.93
2022-12-25T23:05:54.170Z,59.08
2022-12-25T23:08:57.115Z,69.10
2022-12-25T23:12:00.189Z,61.40
2022-12-25T23:15:03.039Z,59.90
2022-12-25T23:18:24.982Z,56.03
2022-12-25T23:21:47.072Z,54.38
2022-12-25T23:25:08.284Z,54.50
2022-12-25T23:28:11.133Z,50.60
2022-12-25T23:31:15.213Z,59.53
2022-12-25T23:34:18.193Z,53.45
2022-12-25T23:37:21.655Z,50.13
2022-12-25T23:40:24.403Z,50.20
2022-12-25T23:43:27.201Z,51.17
2022-12-25T23:46:30.242Z,53.25
2022-12-25T23:49:33.314Z,47.40
2022-12-25T23:52:36.075Z,48.80
2022-12-25T23:55:39.034Z,60.63
2022-12-25T23:58:41.999Z,70.70
